Time;durP1;ratioP1;P1;durP2;ratioP2;P2;SDS_P1;SDS_P2;PMS_P1;PMS_P2;Temp;Humidity;BMP_temperature;BMP_pressure;BME280_temperature;BME280_humidity;BME280_pressure;Samples;Min_cycle;Max_cycle;Signal;HPM_P1;HPM_P2
2023/06/01 00:02:09;;;;;;;;;19.40;18.40;;;;;16.57;56.29;98987.22;7737443;22;96477;-64
2023/06/01 00:05:13;;;;;;;;;20.40;19.40;;;;;16.47;56.78;98976.22;7736208;22;96857;-64
2023/06/01 00:08:17;;;;;;;;;15.40;14.40;;;;;16.42;56.73;98979.72;7737819;22;96291;-64
2023/06/01 00:11:21;;;;;;;;;18.60;17.00;;;;;16.35;56.73;98981.03;7737692;22;96221;-64
2023/06/01 00:14:24;;;;;;;;;20.50;17.00;;;;;16.26;57.23;98975.22;7710043;22;96296;-64
2023/06/01 00:17:30;;;;;;;;;18.20;15.60;;;;;16.19;57.46;98977.31;7708884;22;97233;-64
2023/06/01 00:20:33;;;;;;;;;18.00;16.60;;;;;16.17;57.13;98979.47;7737683;22;96669;-65
2023/06/01 00:23:40;;;;;;;;;17.40;15.80;;;;;16.14;57.40;98973.72;7736357;22;96533;-65
2023/06/01 00:26:44;;;;;;;;;16.60;16.00;;;;;16.06;57.06;98971.47;7684182;22;98524;-64
2023/06/01 00:29:47;;;;;;;;;20.00;18.00;;;;;16.12;57.02;98979.44;7737829;22;96368;-64
2023/06/01 00:32:51;;;;;;;;;15.60;14.60;;;;;16.15;57.07;98978.91;7736944;22;96160;-64
2023/06/01 00:35:54;;;;;;;;;24.00;22.50;;;;;16.16;56.98;98977.84;7709926;22;96314;-64
2023/06/01 00:39:02;;;;;;;;;16.50;15.00;;;;;16.17;57.08;98970.50;7709681;22;96871;-64
2023/06/01 00:42:09;;;;;;;;;14.20;13.00;;;;;16.18;57.12;98981.09;7709627;22;97376;-64
2023/06/01 00:45:12;;;;;;;;;14.80;14.20;;;;;16.18;57.21;98977.56;7736528;22;96200;-64
2023/06/01 00:48:17;;;;;;;;;14.00;13.00;;;;;16.15;57.29;98981.63;7737907;22;96351;-65
2023/06/01 00:51:21;;;;;;;;;18.00;15.50;;;;;16.09;57.35;98982.63;7709905;22;96291;-65
2023/06/01 00:54:26;;;;;;;;;16.00;15.00;;;;;16.01;57.66;98980.38;7737922;22;96322;-64
2023/06/01 00:57:30;;;;;;;;;14.40;14.00;;;;;16.00;57.48;98976.84;7710214;22;96235;-64
2023/06/01 01:00:33;;;;;;;;;15.00;14.00;;;;;15.91;57.42;98977.53;7737579;22;96324;-64
2023/06/01 01:03:38;;;;;;;;;18.25;17.25;;;;;15.86;57.70;98975.59;7708918;22;98294;-65
2023/06/01 01:06:56;;;;;;;;;16.80;15.80;;;;;15.80;57.74;98982.03;7738154;22;96357;-64
2023/06/01 01:10:14;;;;;;;;;17.00;14.25;;;;;15.78;57.63;98976.03;7736640;22;96941;-64
2023/06/01 01:13:24;;;;;;;;;14.25;13.25;;;;;15.71;57.54;98975.38;7709747;22;96608;-64
2023/06/01 01:16:31;;;;;;;;;17.40;16.40;;;;;15.71;57.59;98977.28;7709246;22;96652;-64
2023/06/01 01:19:57;;;;;;;;;16.00;16.00;;;;;15.75;58.20;98973.81;7736129;22;97580;-64
2023/06/01 01:23:16;;;;;;;;;18.40;16.60;;;;;15.81;57.83;98980.97;7683546;22;96728;-64
2023/06/01 01:26:42;;;;;;;;;16.00;15.80;;;;;15.79;57.66;98974.13;7709841;22;96886;-64
2023/06/01 01:29:48;;;;;;;;;15.00;13.80;;;;;15.77;57.73;98966.22;7737579;22;96181;-64
2023/06/01 01:32:52;;;;;;;;;15.20;14.00;;;;;15.72;57.64;98963.44;7710035;22;98553;-64
2023/06/01 01:35:57;;;;;;;;;14.50;14.00;;;;;15.70;57.58;98959.31;7709570;22;96245;-64
2023/06/01 01:39:00;;;;;;;;;16.00;14.00;;;;;15.66;57.54;98963.63;7735698;22;96249;-64
2023/06/01 01:42:05;;;;;;;;;14.00;14.00;;;;;15.62;57.60;98966.03;7709872;22;96362;-64
2023/06/01 01:45:11;;;;;;;;;14.00;13.00;;;;;15.58;57.51;98963.00;7737486;22;96355;-64
2023/06/01 01:48:22;;;;;;;;;15.00;14.60;;;;;15.57;57.53;98958.66;7708315;22;97024;-65
2023/06/01 01:51:37;;;;;;;;;14.00;12.00;;;;;15.46;57.81;98959.53;7709596;22;96357;-65
2023/06/01 01:54:44;;;;;;;;;13.00;11.00;;;;;15.51;57.65;98958.81;7734119;22;96197;-65
2023/06/01 01:57:49;;;;;;;;;14.80;14.20;;;;;15.57;57.97;98966.78;7708931;22;97353;-64
2023/06/01 02:00:55;;;;;;;;;15.50;13.00;;;;;15.67;57.94;98957.13;7709086;22;96671;-64
2023/06/01 02:04:00;;;;;;;;;13.40;12.60;;;;;15.70;57.61;98957.44;7710082;22;96807;-65
2023/06/01 02:07:04;;;;;;;;;15.00;14.00;;;;;15.75;57.69;98954.78;7710049;22;96200;-64
2023/06/01 02:10:09;;;;;;;;;15.00;14.00;;;;;15.79;57.46;98950.47;7709774;22;96157;-64
2023/06/01 02:13:13;;;;;;;;;13.00;13.00;;;;;15.85;57.74;98940.50;7737174;22;96302;-64
2023/06/01 02:16:18;;;;;;;;;13.00;12.00;;;;;15.92;57.76;98941.13;7737046;22;96992;-64
2023/06/01 02:19:21;;;;;;;;;11.75;10.75;;;;;15.95;57.66;98930.56;7734764;22;96873;-63
2023/06/01 02:22:25;;;;;;;;;10.20;10.00;;;;;15.98;57.12;98930.03;7735259;22;96268;-65
2023/06/01 02:25:28;;;;;;;;;11.00;10.60;;;;;16.02;57.10;98930.34;7736874;22;96280;-64
2023/06/01 02:28:31;;;;;;;;;13.40;13.00;;;;;16.03;57.35;98923.81;7736911;22;96232;-64
2023/06/01 02:31:36;;;;;;;;;11.40;10.00;;;;;16.05;57.51;98924.41;7734480;22;96458;-65
2023/06/01 02:34:40;;;;;;;;;12.60;11.60;;;;;16.13;57.05;98920.38;7708500;22;96938;-65
2023/06/01 02:37:43;;;;;;;;;12.00;11.00;;;;;16.17;56.79;98919.66;7735145;22;96150;-64
2023/06/01 02:40:47;;;;;;;;;8.20;8.20;;;;;16.22;56.90;98921.59;7709067;22;97127;-64
2023/06/01 02:43:51;;;;;;;;;11.00;10.00;;;;;16.26;56.60;98915.38;7709098;22;96183;-64
2023/06/01 02:46:56;;;;;;;;;12.00;11.00;;;;;16.32;56.01;98922.47;7709561;22;96457;-64
2023/06/01 02:50:00;;;;;;;;;11.60;11.60;;;;;16.35;56.09;98916.53;7709201;22;96368;-64
2023/06/01 02:53:04;;;;;;;;;9.00;9.00;;;;;16.37;56.12;98919.81;7708902;22;96227;-64
2023/06/01 02:56:08;;;;;;;;;12.00;11.00;;;;;16.42;56.15;98919.84;7683249;22;96211;-64
2023/06/01 02:59:43;;;;;;;;;11.60;9.40;;;;;16.41;56.11;98909.25;7668951;22;96496;-64
2023/06/01 03:02:49;;;;;;;;;11.60;11.00;;;;;16.39;56.07;98911.41;7683764;22;98317;-64
2023/06/01 03:05:53;;;;;;;;;13.60;13.00;;;;;16.30;55.87;98913.78;7685206;22;96634;-65
2023/06/01 03:09:22;;;;;;;;;12.80;12.00;;;;;16.22;56.32;98922.41;7736363;22;96629;-64
2023/06/01 03:12:49;;;;;;;;;14.00;13.00;;;;;16.17;56.25;98918.81;7732759;22;96746;-64
2023/06/01 03:15:52;;;;;;;;;11.00;10.00;;;;;16.12;56.33;98916.88;7710793;22;96213;-64
2023/06/01 03:18:58;;;;;;;;;11.00;11.00;;;;;16.11;56.32;98917.94;7736729;22;96351;-64
2023/06/01 03:22:01;;;;;;;;;14.00;12.00;;;;;16.12;56.52;98918.75;7737916;22;96276;-64
2023/06/01 03:25:07;;;;;;;;;11.00;10.00;;;;;16.11;56.47;98917.94;7737273;22;96102;-64
2023/06/01 03:28:10;;;;;;;;;14.00;13.00;;;;;16.11;56.46;98919.84;7684857;22;97870;-64
2023/06/01 03:31:16;;;;;;;;;12.40;11.40;;;;;16.06;56.37;98917.88;7735934;22;96543;-64
2023/06/01 03:34:22;;;;;;;;;15.00;13.00;;;;;15.91;56.60;98901.41;7709858;22;96805;-64
2023/06/01 03:37:25;;;;;;;;;12.50;12.00;;;;;16.05;56.94;98913.53;7737902;22;96222;-64
2023/06/01 03:40:28;;;;;;;;;14.60;13.60;;;;;16.17;56.93;98916.09;7683209;22;98673;-64
2023/06/01 03:43:32;;;;;;;;;13.20;12.00;;;;;16.31;56.70;98912.69;7734637;22;96106;-64
2023/06/01 03:46:36;;;;;;;;;18.60;16.80;;;;;16.46;56.77;98910.13;7710208;22;96281;-64
2023/06/01 03:49:40;;;;;;;;;11.40;11.40;;;;;16.63;56.27;98911.91;7737021;22;96402;-64
2023/06/01 03:52:46;;;;;;;;;14.00;13.60;;;;;16.70;56.10;98916.06;7735047;22;96319;-64
2023/06/01 03:55:52;;;;;;;;;14.00;13.00;;;;;16.82;55.95;98911.22;7706865;22;100222;-64
2023/06/01 03:59:13;;;;;;;;;15.00;14.40;;;;;17.02;55.51;98912.44;7736596;22;96209;-64
2023/06/01 04:02:17;;;;;;;;;15.00;14.00;;;;;17.17;54.92;98912.53;7736259;22;96206;-64
2023/06/01 04:05:23;;;;;;;;;10.00;9.00;;;;;17.28;54.68;98916.97;7709232;22;96684;-64
2023/06/01 04:08:26;;;;;;;;;12.00;11.00;;;;;17.41;53.57;98908.31;7735858;22;96450;-64
2023/06/01 04:11:30;;;;;;;;;13.00;13.00;;;;;17.52;53.39;98911.91;7707806;22;98996;-63
2023/06/01 04:14:33;;;;;;;;;10.50;10.00;;;;;17.62;52.95;98912.00;7708795;22;96486;-64
2023/06/01 04:17:37;;;;;;;;;10.60;10.00;;;;;17.75;52.32;98904.13;7735579;22;96720;-64
2023/06/01 04:20:42;;;;;;;;;12.40;11.60;;;;;17.88;51.80;98910.19;7708393;22;96285;-65
2023/06/01 04:23:46;;;;;;;;;11.00;10.00;;;;;18.07;51.43;98905.84;7735262;22;96684;-64
2023/06/01 04:26:50;;;;;;;;;10.75;9.50;;;;;18.21;51.00;98889.78;7710156;22;96262;-65
2023/06/01 04:29:54;;;;;;;;;10.80;10.00;;;;;18.40;50.18;98899.06;7733573;22;96205;-65
2023/06/01 04:32:59;;;;;;;;;12.50;11.00;;;;;18.46;49.99;98895.25;7707965;22;96336;-64
2023/06/01 04:36:06;;;;;;;;;11.40;10.40;;;;;18.63;49.68;98890.38;7681296;22;96774;-64
2023/06/01 04:39:10;;;;;;;;;9.25;8.25;;;;;18.68;49.57;98886.81;7734289;22;96466;-65
2023/06/01 04:42:14;;;;;;;;;9.00;9.00;;;;;18.69;49.45;98880.25;7733488;22;96407;-65
2023/06/01 04:45:18;;;;;;;;;11.00;11.00;;;;;18.88;49.00;98889.53;7707244;22;96641;-64
2023/06/01 04:48:22;;;;;;;;;12.00;11.00;;;;;18.99;48.52;98889.25;7707215;22;96210;-64
2023/06/01 04:51:36;;;;;;;;;10.00;9.00;;;;;19.11;48.71;98883.47;7732986;22;96996;-64
2023/06/01 04:54:39;;;;;;;;;11.40;11.00;;;;;19.20;47.60;98892.75;7735226;22;96789;-64
2023/06/01 04:57:44;;;;;;;;;9.80;9.00;;;;;19.28;47.34;98894.09;7734370;22;96403;-64
2023/06/01 05:00:47;;;;;;;;;10.60;10.60;;;;;19.39;47.35;98890.22;7736093;22;96316;-64
2023/06/01 05:03:52;;;;;;;;;12.00;11.00;;;;;19.51;47.10;98892.66;7734984;22;96268;-64
2023/06/01 05:06:57;;;;;;;;;8.25;8.00;;;;;19.52;46.41;98894.31;7708559;22;96692;-64
2023/06/01 05:10:05;;;;;;;;;11.00;11.00;;;;;19.54;46.31;98889.38;7735181;22;96753;-64
2023/06/01 05:13:16;;;;;;;;;12.00;11.00;;;;;19.56;45.99;98896.19;7709083;22;98221;-64
2023/06/01 05:16:20;;;;;;;;;9.00;9.00;;;;;19.55;46.30;98894.56;7710490;22;96388;-64
2023/06/01 05:19:24;;;;;;;;;10.00;10.00;;;;;19.67;46.19;98888.78;7734317;22;96342;-65
2023/06/01 05:22:31;;;;;;;;;12.00;12.00;;;;;19.79;45.73;98898.28;7736080;22;96227;-65
2023/06/01 05:25:34;;;;;;;;;16.00;15.00;;;;;19.86;45.97;98887.03;7710449;22;96481;-64
2023/06/01 05:28:37;;;;;;;;;11.80;11.80;;;;;19.95;46.17;98887.25;7736057;22;96421;-65
2023/06/01 05:31:44;;;;;;;;;17.40;15.60;;;;;19.99;46.19;98882.88;7735630;22;96218;-65
2023/06/01 05:34:48;;;;;;;;;14.25;13.00;;;;;20.17;45.24;98882.19;7709141;22;98905;-65
2023/06/01 05:37:52;;;;;;;;;13.00;12.25;;;;;20.18;45.38;98879.16;7683783;22;96616;-65
2023/06/01 05:40:56;;;;;;;;;11.60;11.40;;;;;20.17;44.74;98872.06;7735209;22;96448;-64
2023/06/01 05:44:00;;;;;;;;;9.00;9.00;;;;;20.33;44.74;98882.94;7709634;22;96892;-64
2023/06/01 05:47:04;;;;;;;;;13.25;11.25;;;;;20.48;44.14;98885.53;7683432;22;96645;-65
2023/06/01 05:50:08;;;;;;;;;9.50;9.50;;;;;20.64;44.30;98876.91;7709602;22;96220;-64
2023/06/01 05:53:12;;;;;;;;;11.25;11.25;;;;;20.85;44.60;98877.56;7683072;22;97155;-65
2023/06/01 05:56:16;;;;;;;;;17.50;15.50;;;;;21.02;44.52;98877.91;7734490;22;96177;-65
2023/06/01 05:59:20;;;;;;;;;10.60;10.60;;;;;21.06;44.23;98878.97;7732726;22;96507;-65
2023/06/01 06:02:23;;;;;;;;;10.00;10.00;;;;;21.18;44.00;98875.88;7675050;22;98315;-64
2023/06/01 06:05:28;;;;;;;;;12.40;11.00;;;;;21.33;44.01;98878.44;7682861;22;97267;-65
2023/06/01 06:08:33;;;;;;;;;7.00;7.00;;;;;21.39;43.89;98876.47;7708643;22;96214;-64
2023/06/01 06:11:38;;;;;;;;;10.00;9.00;;;;;21.59;43.13;98871.56;7735053;22;96365;-64
2023/06/01 06:14:41;;;;;;;;;9.40;9.00;;;;;21.83;43.50;98867.94;7707864;22;97579;-64
2023/06/01 06:17:45;;;;;;;;;10.00;9.25;;;;;22.01;42.23;98872.66;7734776;22;96378;-63
2023/06/01 06:20:48;;;;;;;;;9.25;9.00;;;;;22.13;41.23;98866.72;7732871;22;98780;-64
2023/06/01 06:23:58;;;;;;;;;11.60;11.60;;;;;22.27;41.23;98867.59;7731919;22;96468;-64
2023/06/01 06:27:03;;;;;;;;;9.40;9.00;;;;;22.47;40.41;98864.53;7736257;22;97033;-64
2023/06/01 06:30:07;;;;;;;;;9.00;8.00;;;;;22.62;40.44;98855.22;7735875;22;96379;-64
2023/06/01 06:33:11;;;;;;;;;10.00;8.50;;;;;22.70;39.42;98862.75;7736597;22;96439;-64
2023/06/01 06:36:17;;;;;;;;;9.00;8.00;;;;;22.92;38.97;98870.41;7709180;22;100104;-64
2023/06/01 06:39:22;;;;;;;;;9.00;8.00;;;;;23.05;39.17;98867.66;7736159;22;96491;-64
2023/06/01 06:42:26;;;;;;;;;10.00;8.80;;;;;23.14;38.79;98862.25;7734823;22;98323;-64
2023/06/01 06:45:29;;;;;;;;;10.00;9.00;;;;;23.28;39.08;98858.41;7737730;22;96313;-64
2023/06/01 06:48:32;;;;;;;;;8.40;8.00;;;;;23.04;38.61;98824.78;7737971;22;96246;-65
2023/06/01 06:51:37;;;;;;;;;8.00;8.00;;;;;23.42;38.42;98857.56;7710802;22;96268;-64
2023/06/01 06:54:42;;;;;;;;;8.50;8.00;;;;;23.59;38.94;98855.88;7710882;22;96680;-64
2023/06/01 06:57:46;;;;;;;;;11.00;10.60;;;;;23.73;38.81;98847.59;7710432;22;96290;-64
2023/06/01 07:00:49;;;;;;;;;9.60;9.60;;;;;24.05;38.84;98843.84;7681264;22;96644;-64
2023/06/01 07:03:52;;;;;;;;;9.60;8.60;;;;;24.39;37.64;98851.59;7736736;22;96875;-64
2023/06/01 07:06:56;;;;;;;;;10.20;10.20;;;;;24.48;37.57;98847.78;7737721;22;96726;-64
2023/06/01 07:10:01;;;;;;;;;12.40;11.00;;;;;24.49;36.79;98854.91;7710892;22;96312;-64
2023/06/01 07:13:04;;;;;;;;;12.00;11.00;;;;;24.58;36.55;98855.00;7737195;22;96180;-64
2023/06/01 07:16:07;;;;;;;;;10.00;9.20;;;;;24.84;37.45;98847.69;7737070;22;96284;-64
2023/06/01 07:19:11;;;;;;;;;10.60;9.00;;;;;25.09;37.28;98843.47;7709675;22;96456;-64
2023/06/01 07:22:15;;;;;;;;;11.50;11.00;;;;;25.32;35.72;98845.00;7736180;22;97886;-64
2023/06/01 07:25:19;;;;;;;;;10.80;10.00;;;;;25.49;35.05;98854.50;7737874;22;96289;-64
2023/06/01 07:28:26;;;;;;;;;10.40;10.00;;;;;25.73;35.46;98846.63;7710859;22;96230;-64
2023/06/01 07:31:30;;;;;;;;;9.40;9.40;;;;;25.99;33.77;98849.44;7737384;22;96422;-65
2023/06/01 07:34:34;;;;;;;;;10.00;9.50;;;;;26.09;32.69;98847.16;7710549;22;96218;-65
2023/06/01 07:37:37;;;;;;;;;12.00;11.00;;;;;26.15;33.29;98840.31;7736637;22;96479;-65
2023/06/01 07:40:42;;;;;;;;;8.00;7.00;;;;;26.43;34.04;98837.28;7736100;22;96473;-65
2023/06/01 07:43:46;;;;;;;;;8.50;7.25;;;;;26.54;31.68;98836.59;7735324;22;96363;-65
2023/06/01 07:46:49;;;;;;;;;6.60;6.00;;;;;26.64;31.74;98840.97;7707753;22;98363;-65
2023/06/01 07:49:53;;;;;;;;;9.67;9.67;;;;;26.72;31.29;98843.72;7736039;22;96221;-65
2023/06/01 07:52:57;;;;;;;;;7.80;7.40;;;;;26.93;32.30;98840.25;7734146;22;96249;-65
2023/06/01 07:56:02;;;;;;;;;7.50;7.50;;;;;26.87;30.63;98828.59;7704906;22;98333;-65
2023/06/01 07:59:06;;;;;;;;;8.00;8.00;;;;;27.15;30.12;98832.56;7734654;22;96304;-65
2023/06/01 08:02:10;;;;;;;;;6.25;5.25;;;;;27.31;29.91;98827.28;7706492;22;96351;-65
2023/06/01 08:05:18;;;;;;;;;10.50;10.50;;;;;27.62;29.92;98838.03;7707622;22;96800;-66
2023/06/01 08:08:21;;;;;;;;;7.60;7.60;;;;;27.67;29.83;98829.53;7708826;22;96438;-65
2023/06/01 08:11:26;;;;;;;;;10.40;9.60;;;;;27.81;29.29;98816.22;7708332;22;97353;-69
2023/06/01 08:14:32;;;;;;;;;8.00;8.00;;;;;27.98;29.64;98818.91;7737714;22;96341;-70
2023/06/01 08:17:35;;;;;;;;;9.00;9.00;;;;;28.26;29.54;98812.81;7737895;22;96187;-69
2023/06/01 08:20:39;;;;;;;;;9.00;8.60;;;;;28.61;27.74;98818.84;7737553;22;96539;-70
2023/06/01 08:23:42;;;;;;;;;7.00;6.75;;;;;28.81;26.65;98804.13;7709550;22;98335;-70
2023/06/01 08:26:47;;;;;;;;;8.00;8.00;;;;;28.79;25.65;98809.22;7737700;22;96171;-70
2023/06/01 08:29:51;;;;;;;;;5.00;5.00;;;;;29.06;25.69;98807.75;7737969;22;96254;-68
2023/06/01 08:32:57;;;;;;;;;10.00;8.00;;;;;29.39;27.04;98799.34;7735822;22;97268;-68
2023/06/01 08:36:00;;;;;;;;;7.00;7.00;;;;;29.62;25.84;98804.06;7736540;22;96801;-69
2023/06/01 08:39:23;;;;;;;;;7.00;7.00;;;;;29.80;26.21;98799.09;7737330;22;96363;-70
2023/06/01 08:42:31;;;;;;;;;5.40;5.40;;;;;29.88;24.12;98797.31;7737455;22;97495;-70
2023/06/01 08:45:35;;;;;;;;;6.00;6.00;;;;;29.65;23.42;98797.84;7711082;22;96606;-69
2023/06/01 08:48:40;;;;;;;;;6.00;5.50;;;;;29.75;25.00;98787.41;7737681;22;96202;-69
2023/06/01 08:51:45;;;;;;;;;6.60;6.00;;;;;29.89;24.51;98790.63;7735654;22;98465;-69
2023/06/01 08:54:49;;;;;;;;;5.00;5.00;;;;;29.87;24.39;98781.81;7737345;22;96491;-70
2023/06/01 08:57:54;;;;;;;;;7.60;7.40;;;;;29.85;25.02;98775.81;7738019;22;96258;-70
2023/06/01 09:00:59;;;;;;;;;5.40;5.40;;;;;30.01;23.48;98785.03;7709549;22;96589;-69
2023/06/01 09:04:03;;;;;;;;;7.40;7.00;;;;;30.03;22.98;98777.16;7709632;22;96272;-70
2023/06/01 09:07:07;;;;;;;;;6.50;6.50;;;;;30.02;22.43;98767.19;7736765;22;96133;-69
2023/06/01 09:10:11;;;;;;;;;6.25;6.00;;;;;30.17;22.28;98771.19;7710144;22;96255;-69
2023/06/01 09:13:31;;;;;;;;;7.00;6.00;;;;;30.02;21.90;98764.41;7734977;22;96281;-69
2023/06/01 09:16:38;;;;;;;;;6.00;6.00;;;;;30.06;21.87;98763.34;7710164;22;96187;-69
2023/06/01 09:19:42;;;;;;;;;8.00;7.00;;;;;30.07;22.53;98758.59;7709425;22;99457;-69
2023/06/01 09:22:47;;;;;;;;;5.40;5.00;;;;;30.40;25.05;98753.59;7737507;22;96251;-69
2023/06/01 09:26:04;;;;;;;;;7.40;7.40;;;;;30.80;24.73;98747.13;7709595;22;98324;-69
2023/06/01 09:29:09;;;;;;;;;6.20;5.80;;;;;31.04;22.98;98755.31;7709781;22;98464;-69
2023/06/01 09:32:20;;;;;;;;;9.00;8.40;;;;;30.93;22.47;98748.66;7710084;22;96549;-69
2023/06/01 09:35:38;;;;;;;;;5.80;5.80;;;;;30.84;22.00;98754.38;7709941;22;96616;-67
2023/06/01 09:38:42;;;;;;;;;5.80;5.00;;;;;30.64;22.07;98735.19;7735676;22;96315;-67
2023/06/01 09:41:46;;;;;;;;;7.00;6.25;;;;;30.51;22.21;98735.25;7709202;22;99312;-68
2023/06/01 09:44:51;;;;;;;;;4.00;4.00;;;;;30.50;22.22;98750.31;7737260;22;96480;-68
2023/06/01 09:47:54;;;;;;;;;7.00;7.00;;;;;30.61;22.66;98742.25;7737532;22;96266;-68
2023/06/01 09:50:57;;;;;;;;;6.00;6.00;;;;;30.44;21.97;98746.16;7737811;22;96937;-68
2023/06/01 09:54:04;;;;;;;;;6.00;4.40;;;;;30.41;21.29;98744.09;7709994;22;96233;-68
2023/06/01 09:57:09;;;;;;;;;7.50;7.50;;;;;30.18;21.68;98745.00;7708621;22;96236;-68
2023/06/01 10:00:24;;;;;;;;;8.20;8.20;;;;;30.25;22.48;98725.75;7737197;22;96205;-68
2023/06/01 10:03:28;;;;;;;;;6.80;5.00;;;;;30.16;22.14;98730.66;7681898;22;96612;-67
2023/06/01 10:06:36;;;;;;;;;6.60;6.60;;;;;30.49;22.58;98725.66;7709674;22;96914;-68
2023/06/01 10:09:42;;;;;;;;;4.00;3.00;;;;;30.49;21.63;98717.31;7737248;22;96341;-68
2023/06/01 10:12:46;;;;;;;;;5.20;5.20;;;;;30.60;21.18;98714.78;7709945;22;96246;-68
2023/06/01 10:15:54;;;;;;;;;6.00;5.00;;;;;30.60;20.43;98718.38;7709551;22;96827;-68
2023/06/01 10:18:58;;;;;;;;;5.40;5.40;;;;;30.70;20.88;98717.03;7683122;22;96732;-68
2023/06/01 10:22:04;;;;;;;;;7.50;7.00;;;;;30.81;22.18;98705.00;7708912;22;99377;-68
2023/06/01 10:25:11;;;;;;;;;5.80;5.00;;;;;31.05;21.36;98715.16;7737169;22;96764;-68
2023/06/01 10:28:15;;;;;;;;;6.00;6.00;;;;;30.77;21.21;98709.69;7737488;22;96271;-68
2023/06/01 10:31:40;;;;;;;;;7.00;7.00;;;;;30.89;21.41;98709.56;7736938;22;97056;-68
2023/06/01 10:34:45;;;;;;;;;7.00;6.00;;;;;31.10;21.41;98700.97;7736876;22;96264;-68
2023/06/01 10:38:22;;;;;;;;;5.75;5.50;;;;;31.17;21.03;98697.56;7736551;22;96242;-68
2023/06/01 10:41:31;;;;;;;;;9.00;8.00;;;;;31.25;21.91;98702.13;7735597;22;97642;-69
2023/06/01 10:44:48;;;;;;;;;3.20;3.00;;;;;31.66;21.26;98693.13;7735318;22;96157;-69
2023/06/01 10:47:53;;;;;;;;;6.00;6.00;;;;;31.66;20.30;98693.13;7709057;22;98831;-69
2023/06/01 10:51:18;;;;;;;;;7.00;7.00;;;;;31.84;20.58;98687.91;7709334;22;96213;-68
2023/06/01 10:54:27;;;;;;;;;6.40;6.00;;;;;31.97;21.13;98691.34;7737099;22;96836;-67
2023/06/01 10:57:31;;;;;;;;;5.00;4.00;;;;;32.20;20.98;98687.50;7709787;22;96904;-68
2023/06/01 11:00:40;;;;;;;;;6.00;6.00;;;;;32.34;21.34;98653.47;7736848;22;96191;-68
2023/06/01 11:03:47;;;;;;;;;5.60;5.00;;;;;32.77;21.38;98668.16;7709223;22;96633;-68
2023/06/01 11:06:51;;;;;;;;;6.00;6.00;;;;;33.03;20.34;98666.22;7736982;22;96203;-68
2023/06/01 11:09:54;;;;;;;;;6.60;6.60;;;;;33.08;19.73;98665.09;7736396;22;96620;-68
2023/06/01 11:13:17;;;;;;;;;5.00;5.00;;;;;32.63;18.98;98643.59;7736884;22;96259;-68
2023/06/01 11:16:31;;;;;;;;;4.20;4.20;;;;;32.44;19.09;98664.00;7736216;22;96488;-68
2023/06/01 11:19:40;;;;;;;;;4.00;4.00;;;;;32.23;19.09;98669.19;7737884;22;96825;-68
2023/06/01 11:22:43;;;;;;;;;7.20;6.80;;;;;32.16;19.50;98661.50;7734154;22;96179;-67
2023/06/01 11:25:49;;;;;;;;;6.00;6.00;;;;;32.27;19.66;98653.31;7710958;22;96341;-68
2023/06/01 11:29:03;;;;;;;;;6.50;6.50;;;;;32.65;19.82;98647.63;7710876;22;96787;-68
2023/06/01 11:32:08;;;;;;;;;6.00;6.00;;;;;32.86;19.28;98641.59;7738264;22;96304;-68
2023/06/01 11:35:20;;;;;;;;;7.00;7.00;;;;;33.14;19.06;98635.63;7708388;22;96533;-67
2023/06/01 11:38:24;;;;;;;;;8.50;6.50;;;;;33.32;17.69;98633.13;7738027;22;96342;-68
2023/06/01 11:41:27;;;;;;;;;5.00;4.00;;;;;33.49;17.70;98635.34;7739200;22;96234;-67
2023/06/01 11:44:30;;;;;;;;;5.00;5.00;;;;;33.51;18.31;98631.00;7736430;22;96427;-68
2023/06/01 11:47:35;;;;;;;;;3.00;3.00;;;;;33.54;18.06;98626.63;7708357;22;96600;-68
2023/06/01 11:50:47;;;;;;;;;6.40;5.40;;;;;33.67;19.04;98618.81;7707052;22;96617;-67
2023/06/01 11:53:51;;;;;;;;;4.50;4.50;;;;;33.67;17.68;98614.06;7708611;22;97197;-66
2023/06/01 11:56:57;;;;;;;;;5.20;4.80;;;;;33.61;17.92;98612.75;7736287;22;96187;-67
2023/06/01 12:00:03;;;;;;;;;7.00;6.00;;;;;33.56;16.58;98623.47;7707838;22;97586;-66
2023/06/01 12:03:08;;;;;;;;;7.50;7.00;;;;;33.54;17.04;98607.06;7732532;22;96806;-67
2023/06/01 12:06:21;;;;;;;;;6.00;5.40;;;;;33.39;17.15;98610.84;7735772;22;96204;-66
2023/06/01 12:09:25;;;;;;;;;6.50;6.50;;;;;33.12;17.28;98606.47;7736539;22;96171;-64
2023/06/01 12:12:33;;;;;;;;;5.00;5.00;;;;;33.12;17.21;98601.69;7736092;22;96489;-66
2023/06/01 12:15:37;;;;;;;;;4.40;4.00;;;;;33.09;17.60;98602.44;7707795;22;98260;-66
2023/06/01 12:18:40;;;;;;;;;3.80;3.80;;;;;33.04;17.66;98608.34;7706910;22;98650;-67
2023/06/01 12:21:50;;;;;;;;;5.00;5.00;;;;;33.09;18.32;98608.00;7736952;22;97532;-67
2023/06/01 12:24:54;;;;;;;;;5.00;5.00;;;;;32.98;16.56;98581.94;7737180;22;96396;-67
2023/06/01 12:28:05;;;;;;;;;5.60;5.60;;;;;32.94;17.89;98595.06;7737200;22;96086;-66
2023/06/01 12:31:10;;;;;;;;;6.20;5.20;;;;;32.95;16.62;98588.25;7708939;22;98432;-66
2023/06/01 12:34:17;;;;;;;;;6.25;6.00;;;;;33.03;16.96;98585.22;7709820;22;96278;-67
2023/06/01 12:37:22;;;;;;;;;6.00;5.00;;;;;33.21;17.37;98581.88;7736926;22;97161;-66
2023/06/01 12:40:25;;;;;;;;;6.00;6.00;;;;;33.46;18.15;98571.84;7709117;22;97416;-65
2023/06/01 12:43:29;;;;;;;;;4.00;4.00;;;;;33.49;16.93;98576.66;7736916;22;97384;-67
2023/06/01 12:46:35;;;;;;;;;4.00;4.00;;;;;33.50;17.28;98569.88;7735074;22;97038;-67
2023/06/01 12:49:39;;;;;;;;;7.00;7.00;;;;;33.43;16.28;98565.00;7709529;22;96206;-67
2023/06/01 12:52:44;;;;;;;;;7.40;7.00;;;;;33.49;17.14;98569.06;7737024;22;96738;-66
2023/06/01 12:55:48;;;;;;;;;6.00;5.00;;;;;33.41;16.66;98561.00;7736539;22;96158;-66
2023/06/01 12:58:51;;;;;;;;;4.00;4.00;;;;;33.37;16.54;98554.56;7736773;22;96507;-64
2023/06/01 13:01:56;;;;;;;;;3.00;3.00;;;;;33.47;16.54;98554.69;7709999;22;99265;-66
2023/06/01 13:05:00;;;;;;;;;4.75;4.75;;;;;33.66;16.38;98550.91;7737692;22;96355;-63
2023/06/01 13:08:04;;;;;;;;;4.40;4.00;;;;;33.58;15.96;98551.19;7737577;22;96268;-65
2023/06/01 13:11:08;;;;;;;;;4.00;3.60;;;;;33.26;16.77;98542.44;7735886;22;96373;-66
2023/06/01 13:14:12;;;;;;;;;3.60;3.60;;;;;33.43;17.15;98547.41;7735327;22;96621;-66
2023/06/01 13:17:16;;;;;;;;;5.20;4.20;;;;;33.50;15.85;98544.72;7733752;22;96311;-66
2023/06/01 13:20:19;;;;;;;;;4.60;4.20;;;;;33.65;17.21;98540.91;7737765;22;96286;-66
2023/06/01 13:23:24;;;;;;;;;8.00;7.00;;;;;33.80;17.17;98536.28;7709264;22;98258;-66
2023/06/01 13:26:27;;;;;;;;;6.20;5.00;;;;;33.89;17.73;98531.19;7709817;22;96585;-66
2023/06/01 13:29:30;;;;;;;;;5.00;5.00;;;;;33.98;17.11;98536.47;7737192;22;96292;-66
2023/06/01 13:32:34;;;;;;;;;5.00;5.00;;;;;33.83;16.72;98530.72;7708585;22;96178;-66
2023/06/01 13:35:38;;;;;;;;;7.60;6.20;;;;;33.83;16.10;98527.94;7733992;22;96543;-66
2023/06/01 13:38:42;;;;;;;;;5.00;5.00;;;;;33.70;17.15;98525.81;7734984;22;96905;-66
2023/06/01 13:41:46;;;;;;;;;4.00;4.00;;;;;33.72;16.48;98521.41;7707311;22;96618;-66
2023/06/01 13:44:50;;;;;;;;;8.00;7.40;;;;;33.77;17.01;98512.69;7735751;22;96510;-66
2023/06/01 13:47:54;;;;;;;;;4.00;4.00;;;;;33.79;15.70;98513.13;7735785;22;96450;-65
2023/06/01 13:50:58;;;;;;;;;5.00;5.00;;;;;33.62;14.83;98496.94;7735604;22;97401;-65
2023/06/01 13:54:03;;;;;;;;;5.00;5.00;;;;;33.24;15.48;98503.69;7736613;22;96671;-66
2023/06/01 13:57:07;;;;;;;;;5.00;5.00;;;;;32.90;15.07;98502.03;7734576;22;96530;-65
2023/06/01 14:00:12;;;;;;;;;5.00;5.00;;;;;32.78;14.77;98494.72;7735826;22;96777;-67
2023/06/01 14:03:19;;;;;;;;;6.00;5.00;;;;;32.57;15.18;98494.38;7708865;22;96351;-66
2023/06/01 14:06:22;;;;;;;;;6.00;5.60;;;;;32.69;15.30;98488.59;7707213;22;99398;-66
2023/06/01 14:09:27;;;;;;;;;5.50;5.50;;;;;32.27;15.62;98485.94;7708616;22;96255;-66
2023/06/01 14:12:31;;;;;;;;;7.50;7.50;;;;;32.26;16.07;98475.97;7708709;22;96629;-65
2023/06/01 14:15:34;;;;;;;;;7.00;6.00;;;;;32.36;16.26;98475.31;7733873;22;98713;-66
2023/06/01 14:18:39;;;;;;;;;5.00;5.00;;;;;32.15;15.55;98472.22;7735776;22;96276;-65
2023/06/01 14:21:42;;;;;;;;;4.00;4.00;;;;;32.18;15.88;98477.03;7735705;22;96263;-65
2023/06/01 14:24:47;;;;;;;;;4.75;4.25;;;;;32.25;15.97;98475.16;7708050;22;96623;-67
2023/06/01 14:27:50;;;;;;;;;6.00;6.00;;;;;32.41;15.03;98463.03;7708871;22;96652;-66